Fillmore, Utah
Current Conditions -  °F | °C
As of 11:15 AM on Sunday 25 Jan 2015 (Local Time) from KDTA Reporting Station
Clear Clear  
Wind Chill: 42°   Ceiling: Unl
Heat Index: 42°   Visibility: 10mi
Dew Point: 29°   Wind: 0mph
Humidity: 61%   Direction: NA
Pressure: 30.47"   Gusts: NA
Location:  38.97°N, 112.32°W
Report Text: KDTA 251815Z AUTO 00000KT 10SM CLR 05/M01 A3047 RMK AO1 T00541015
Loading
Personal Weather Stations






























Interactive Weather Map New forecast layout! Learn more

10-Day Weather Forecast

Advertisements
Track Severe Weather on mobile